Wisconsin Dells, Wisconsin
Current Conditions -  °F | °C
As of 3:15 AM on Friday 31 Oct 2014 (Local Time) from KDLL Reporting Station
Overcast Overcast  
Wind Chill: 23°   Ceiling: 3000
Heat Index: 34°   Visibility: 10mi
Dew Point: 23°   Wind: 17mph
Humidity: 65%   Direction: 320°NW
Pressure: 30.15"   Gusts: 25mph
Location:  43.63°N, 89.77°W
Report Text: KDLL 310815Z AUTO 32015G22KT 10SM OVC030 01/M05 A3015 RMK AO2 T00101050
Loading
Personal Weather Stations






























Interactive Weather Map New forecast layout! Learn more

10-Day Weather Forecast

Advertisements
Track Severe Weather on mobile